Time;durP1;ratioP1;P1;durP2;ratioP2;P2;SDS_P1;SDS_P2;PMS_P1;PMS_P2;Temp;Humidity;BMP_temperature;BMP_pressure;BME280_temperature;BME280_humidity;BME280_pressure;Samples;Min_cycle;Max_cycle;Signal;HPM_P1;HPM_P2
2024/01/31 00:02:00;;;;;;;;;;;5.30;99.90;;;;;;5057692;27;19971;-75
2024/01/31 00:04:25;;;;;;;;;;;5.20;99.90;;;;;;5058614;28;20233;-74
2024/01/31 00:06:51;;;;;;;;;;;5.10;99.90;;;;;;5069346;28;20432;-76
2024/01/31 00:09:17;;;;;;;;;;;5.20;99.90;;;;;;5053787;27;19961;-75
2024/01/31 00:11:42;;;;;;;;;;;5.90;99.90;;;;;;5072330;27;19989;-75
2024/01/31 00:14:08;;;;;;;;;;;5.10;99.90;;;;;;5077290;28;21069;-75
2024/01/31 00:16:34;;;;;;;;;;;5.10;99.90;;;;;;5063047;28;19976;-75
2024/01/31 00:18:59;;;;;;;;;;;5.20;99.90;;;;;;5069470;27;20123;-75
2024/01/31 00:21:25;;;;;;;;;;;5.30;99.90;;;;;;5082726;27;19927;-75
2024/01/31 00:23:51;;;;;;;;;;;5.30;99.90;;;;;;5082418;27;19925;-76
2024/01/31 00:26:16;;;;;;;;;;;5.30;99.90;;;;;;5065749;27;20068;-76
2024/01/31 00:28:42;;;;;;;;;;;5.30;99.90;;;;;;5082521;27;20333;-75
2024/01/31 00:31:10;;;;;;;;;;;5.30;99.90;;;;;;5068928;28;19938;-75
2024/01/31 00:33:36;;;;;;;;;;;5.40;99.90;;;;;;5083847;27;20046;-75
2024/01/31 00:36:01;;;;;;;;;;;5.40;99.90;;;;;;5086181;27;19961;-76
2024/01/31 00:38:27;;;;;;;;;;;5.30;99.90;;;;;;5079483;28;19946;-75
2024/01/31 00:40:54;;;;;;;;;;;5.10;99.90;;;;;;5065767;28;20382;-75
2024/01/31 00:43:19;;;;;;;;;;;5.20;99.90;;;;;;5067521;27;20293;-75
2024/01/31 00:45:45;;;;;;;;;;;5.30;99.90;;;;;;5082938;27;19942;-75
2024/01/31 00:48:11;;;;;;;;;;;5.20;99.90;;;;;;5080848;27;19928;-76
2024/01/31 00:50:36;;;;;;;;;;;5.20;99.90;;;;;;5096283;28;19928;-75
2024/01/31 00:53:03;;;;;;;;;;;5.20;99.90;;;;;;5079652;28;19938;-75
2024/01/31 00:55:28;;;;;;;;;;;5.40;99.90;;;;;;5099751;27;19971;-75
2024/01/31 00:57:54;;;;;;;;;;;5.50;99.90;;;;;;5067133;27;20249;-75
2024/01/31 01:00:23;;;;;;;;;;;5.30;99.90;;;;;;5081647;27;19928;-74
2024/01/31 01:02:51;;;;;;;;;;;5.50;99.90;;;;;;5068088;28;19931;-74
2024/01/31 01:05:17;;;;;;;;;;;5.30;99.90;;;;;;5086139;27;19949;-75
2024/01/31 01:07:45;;;;;;;;;;;5.40;99.90;;;;;;5084365;27;19931;-74
2024/01/31 01:10:14;;;;;;;;;;;5.30;99.90;;;;;;5066292;28;20010;-75
2024/01/31 01:12:41;;;;;;;;;;;5.40;99.90;;;;;;5076588;28;19970;-73
2024/01/31 01:15:08;;;;;;;;;;;5.30;99.90;;;;;;5091721;27;19928;-74
2024/01/31 01:17:35;;;;;;;;;;;5.40;99.90;;;;;;5085380;27;20061;-75
2024/01/31 01:20:00;;;;;;;;;;;5.30;99.90;;;;;;5064613;28;20318;-74
2024/01/31 01:22:26;;;;;;;;;;;5.50;99.90;;;;;;5083488;27;19998;-76
2024/01/31 01:24:52;;;;;;;;;;;5.50;99.90;;;;;;5045508;27;19927;-74
2024/01/31 01:27:18;;;;;;;;;;;5.50;99.90;;;;;;5069387;27;20256;-74
2024/01/31 01:29:44;;;;;;;;;;;5.50;99.90;;;;;;5083665;27;19931;-72
2024/01/31 01:32:10;;;;;;;;;;;5.40;99.90;;;;;;5074644;27;19934;-74
2024/01/31 01:34:37;;;;;;;;;;;5.50;99.90;;;;;;5055224;27;20297;-73
2024/01/31 01:37:03;;;;;;;;;;;5.30;99.90;;;;;;5084730;28;20440;-74
2024/01/31 01:39:28;;;;;;;;;;;5.30;99.90;;;;;;5081561;28;19932;-72
2024/01/31 01:41:56;;;;;;;;;;;5.40;99.90;;;;;;5066825;27;19928;-74
2024/01/31 01:44:22;;;;;;;;;;;5.10;99.90;;;;;;5083164;27;20018;-74
2024/01/31 01:46:47;;;;;;;;;;;5.30;99.90;;;;;;5083259;27;19996;-73
2024/01/31 01:49:13;;;;;;;;;;;5.50;99.90;;;;;;5082940;27;19935;-75
2024/01/31 01:51:39;;;;;;;;;;;6.90;99.90;;;;;;5084617;27;19924;-74
2024/01/31 01:54:07;;;;;;;;;;;5.40;99.90;;;;;;5081383;27;19991;-74
2024/01/31 01:56:33;;;;;;;;;;;5.30;99.90;;;;;;5066728;28;19939;-75
2024/01/31 01:58:59;;;;;;;;;;;5.30;99.90;;;;;;5091014;27;19986;-75
2024/01/31 02:01:26;;;;;;;;;;;5.30;99.90;;;;;;5062212;27;20345;-75
2024/01/31 02:03:54;;;;;;;;;;;5.20;99.90;;;;;;5084805;27;20397;-74
2024/01/31 02:06:19;;;;;;;;;;;5.20;99.90;;;;;;5068211;27;20571;-74
2024/01/31 02:08:45;;;;;;;;;;;5.50;99.90;;;;;;5088969;27;19938;-74
2024/01/31 02:11:11;;;;;;;;;;;5.20;99.90;;;;;;5078472;27;20421;-74
2024/01/31 02:13:36;;;;;;;;;;;5.20;99.90;;;;;;5079681;27;19970;-74
2024/01/31 02:16:02;;;;;;;;;;;5.10;99.90;;;;;;5063639;27;19988;-74
2024/01/31 02:18:28;;;;;;;;;;;5.00;99.90;;;;;;5080355;28;20004;-74
2024/01/31 02:20:54;;;;;;;;;;;4.90;99.90;;;;;;5081353;27;19928;-74
2024/01/31 02:23:23;;;;;;;;;;;5.20;99.90;;;;;;5073635;27;19934;-74
2024/01/31 02:25:48;;;;;;;;;;;5.20;99.90;;;;;;5065202;28;19931;-74
2024/01/31 02:28:14;;;;;;;;;;;4.90;99.90;;;;;;5069163;28;19924;-74
2024/01/31 02:30:41;;;;;;;;;;;5.10;99.90;;;;;;5087465;28;20414;-74
2024/01/31 02:33:06;;;;;;;;;;;4.20;99.90;;;;;;5086476;27;19931;-74
2024/01/31 02:35:33;;;;;;;;;;;5.10;99.90;;;;;;5078796;28;19965;-74
2024/01/31 02:37:59;;;;;;;;;;;5.00;99.90;;;;;;5069967;27;19939;-74
2024/01/31 02:40:25;;;;;;;;;;;5.20;99.90;;;;;;5078779;27;19928;-75
2024/01/31 02:42:50;;;;;;;;;;;5.00;99.90;;;;;;5080256;28;20011;-75
2024/01/31 02:45:16;;;;;;;;;;;5.00;99.90;;;;;;5067994;27;20367;-74
2024/01/31 02:47:42;;;;;;;;;;;5.30;99.90;;;;;;5066895;27;19932;-76
2024/01/31 02:50:08;;;;;;;;;;;5.30;99.90;;;;;;5081468;27;19927;-75
2024/01/31 02:52:33;;;;;;;;;;;5.30;99.90;;;;;;5079623;27;19928;-74
2024/01/31 02:55:01;;;;;;;;;;;5.30;99.90;;;;;;5074600;28;20389;-75
2024/01/31 02:57:27;;;;;;;;;;;5.20;99.90;;;;;;5076965;28;21627;-75
2024/01/31 02:59:52;;;;;;;;;;;5.20;99.90;;;;;;5095486;27;19924;-75
2024/01/31 03:02:18;;;;;;;;;;;5.40;99.90;;;;;;5070620;28;19974;-75
2024/01/31 03:04:44;;;;;;;;;;;5.20;99.90;;;;;;5080228;27;20234;-75
2024/01/31 03:07:12;;;;;;;;;;;5.20;99.90;;;;;;5062004;28;19928;-75
2024/01/31 03:09:38;;;;;;;;;;;5.20;99.90;;;;;;5076811;28;19924;-73
2024/01/31 03:12:04;;;;;;;;;;;5.40;99.90;;;;;;5077668;28;20366;-74
2024/01/31 03:14:30;;;;;;;;;;;5.10;99.90;;;;;;5061550;28;19928;-74
2024/01/31 03:16:56;;;;;;;;;;;5.20;99.90;;;;;;5083006;28;20405;-75
2024/01/31 03:19:22;;;;;;;;;;;5.10;99.90;;;;;;5075610;27;19923;-75
2024/01/31 03:21:47;;;;;;;;;;;5.40;99.90;;;;;;5066418;28;19974;-74
2024/01/31 03:24:15;;;;;;;;;;;5.40;99.90;;;;;;5063683;28;20305;-74
2024/01/31 03:26:41;;;;;;;;;;;5.40;99.90;;;;;;5075648;28;20091;-75
2024/01/31 03:29:07;;;;;;;;;;;5.20;99.90;;;;;;5082268;28;19931;-75
2024/01/31 03:31:33;;;;;;;;;;;5.20;99.90;;;;;;5081676;28;20610;-74
2024/01/31 03:33:59;;;;;;;;;;;5.20;99.90;;;;;;5062465;28;19934;-75
2024/01/31 03:36:26;;;;;;;;;;;5.20;99.90;;;;;;5064153;28;20378;-74
2024/01/31 03:38:54;;;;;;;;;;;5.20;99.90;;;;;;5067101;28;19931;-74
2024/01/31 03:41:20;;;;;;;;;;;5.20;99.90;;;;;;5080160;28;20041;-74
2024/01/31 03:43:45;;;;;;;;;;;5.40;99.90;;;;;;5080641;28;20018;-75
2024/01/31 03:46:12;;;;;;;;;;;5.40;99.90;;;;;;5078994;28;19935;-75
2024/01/31 03:48:38;;;;;;;;;;;5.40;99.90;;;;;;5060798;28;20382;-75
2024/01/31 03:51:03;;;;;;;;;;;5.50;99.90;;;;;;5095055;28;20011;-75
2024/01/31 03:53:29;;;;;;;;;;;5.30;99.90;;;;;;5076189;28;19970;-75
2024/01/31 03:55:55;;;;;;;;;;;5.30;99.90;;;;;;5045970;28;19927;-74
2024/01/31 03:58:20;;;;;;;;;;;5.60;99.90;;;;;;5079323;28;19928;-75
2024/01/31 04:00:46;;;;;;;;;;;5.20;99.90;;;;;;5079858;28;19938;-74
2024/01/31 04:03:12;;;;;;;;;;;5.20;99.90;;;;;;5079639;28;19924;-74
2024/01/31 04:05:37;;;;;;;;;;;5.50;99.90;;;;;;5072808;28;19927;-74
2024/01/31 04:08:03;;;;;;;;;;;5.30;99.90;;;;;;5077588;28;20065;-73
2024/01/31 04:10:29;;;;;;;;;;;5.00;99.90;;;;;;5076821;28;19931;-75
2024/01/31 04:12:54;;;;;;;;;;;5.60;99.90;;;;;;5072264;28;20015;-75
2024/01/31 04:15:20;;;;;;;;;;;5.00;99.90;;;;;;5062756;28;20703;-74
2024/01/31 04:17:46;;;;;;;;;;;4.90;99.90;;;;;;5074018;28;20097;-75
2024/01/31 04:20:12;;;;;;;;;;;5.00;99.90;;;;;;5077883;27;20571;-76
2024/01/31 04:22:37;;;;;;;;;;;5.30;99.90;;;;;;5078432;28;19931;-74
2024/01/31 04:25:04;;;;;;;;;;;5.30;99.90;;;;;;5067327;27;20259;-75
2024/01/31 04:27:29;;;;;;;;;;;5.20;99.90;;;;;;5078984;27;20421;-74
2024/01/31 04:29:55;;;;;;;;;;;4.60;99.90;;;;;;5064500;28;20034;-75
2024/01/31 04:32:22;;;;;;;;;;;5.00;99.90;;;;;;5057966;27;19931;-76
2024/01/31 04:34:47;;;;;;;;;;;4.90;99.90;;;;;;5063145;27;19958;-75
2024/01/31 04:37:13;;;;;;;;;;;5.00;99.90;;;;;;5064470;27;20023;-75
2024/01/31 04:39:39;;;;;;;;;;;4.90;99.90;;;;;;5077700;27;19972;-75
2024/01/31 04:42:04;;;;;;;;;;;5.10;99.90;;;;;;5071640;27;19966;-75
2024/01/31 04:44:30;;;;;;;;;;;4.60;99.90;;;;;;5047946;28;19933;-74
2024/01/31 04:46:56;;;;;;;;;;;5.00;99.90;;;;;;5077587;28;20406;-75
2024/01/31 04:49:21;;;;;;;;;;;5.00;99.90;;;;;;5079803;28;20494;-75
2024/01/31 04:51:47;;;;;;;;;;;4.30;99.90;;;;;;5081538;28;19939;-75
2024/01/31 04:54:13;;;;;;;;;;;5.00;99.90;;;;;;5079525;27;20018;-75
2024/01/31 04:56:38;;;;;;;;;;;4.50;99.90;;;;;;5082460;27;19931;-75
2024/01/31 04:59:04;;;;;;;;;;;5.00;99.90;;;;;;5039772;27;19923;-75
2024/01/31 05:01:30;;;;;;;;;;;5.00;99.90;;;;;;5099600;27;20103;-75
2024/01/31 05:03:58;;;;;;;;;;;4.30;99.90;;;;;;5078137;27;20331;-75
2024/01/31 05:06:24;;;;;;;;;;;4.30;99.90;;;;;;5063126;28;19924;-75
2024/01/31 05:08:50;;;;;;;;;;;4.30;99.90;;;;;;5064299;27;19988;-75
2024/01/31 05:11:16;;;;;;;;;;;4.50;99.90;;;;;;5055171;27;19931;-76
2024/01/31 05:13:41;;;;;;;;;;;4.80;99.90;;;;;;5079435;28;19935;-75
2024/01/31 05:16:08;;;;;;;;;;;4.60;99.90;;;;;;5076831;28;19974;-76
2024/01/31 05:18:34;;;;;;;;;;;5.10;99.90;;;;;;5072373;28;19924;-75
2024/01/31 05:21:00;;;;;;;;;;;5.00;99.90;;;;;;5063485;28;19924;-76
2024/01/31 05:23:25;;;;;;;;;;;4.90;99.90;;;;;;5085506;27;19927;-76
2024/01/31 05:25:51;;;;;;;;;;;4.50;99.90;;;;;;5066052;27;19930;-76
2024/01/31 05:28:17;;;;;;;;;;;5.00;99.90;;;;;;5068280;27;19950;-76
2024/01/31 05:30:42;;;;;;;;;;;4.80;99.90;;;;;;5080394;28;20670;-76
2024/01/31 05:33:08;;;;;;;;;;;4.90;99.90;;;;;;5071517;28;19938;-76
2024/01/31 05:35:36;;;;;;;;;;;4.20;99.90;;;;;;5081424;27;20271;-76
2024/01/31 05:38:02;;;;;;;;;;;5.10;99.90;;;;;;5063205;27;20389;-75
2024/01/31 05:40:31;;;;;;;;;;;4.60;99.90;;;;;;5063845;27;20927;-75
2024/01/31 05:42:57;;;;;;;;;;;4.40;99.90;;;;;;5059809;28;19931;-74
2024/01/31 05:45:23;;;;;;;;;;;4.10;99.90;;;;;;5064289;28;19928;-75
2024/01/31 05:47:49;;;;;;;;;;;4.60;99.90;;;;;;5083500;27;20282;-75
2024/01/31 05:50:15;;;;;;;;;;;4.00;99.90;;;;;;5074654;27;20121;-75
2024/01/31 05:52:40;;;;;;;;;;;4.30;99.90;;;;;;5061425;28;19935;-75
2024/01/31 05:55:06;;;;;;;;;;;4.40;99.90;;;;;;5067831;27;19928;-75
2024/01/31 05:57:32;;;;;;;;;;;4.30;99.90;;;;;;5046476;27;20502;-75
2024/01/31 05:59:58;;;;;;;;;;;4.30;99.90;;;;;;5063167;27;19970;-75
2024/01/31 06:02:24;;;;;;;;;;;4.10;99.90;;;;;;5059396;27;20018;-76
2024/01/31 06:04:50;;;;;;;;;;;4.20;99.90;;;;;;5095427;27;20314;-75
2024/01/31 06:07:15;;;;;;;;;;;3.80;99.90;;;;;;5080681;28;19973;-75
2024/01/31 06:09:41;;;;;;;;;;;4.40;99.90;;;;;;5078450;28;19927;-76
2024/01/31 06:12:13;;;;;;;;;;;3.90;99.90;;;;;;5080086;27;19938;-76
2024/01/31 06:14:39;;;;;;;;;;;4.20;99.90;;;;;;5063137;28;19982;-75
2024/01/31 06:17:05;;;;;;;;;;;3.80;99.90;;;;;;5081931;27;20011;-75
2024/01/31 06:19:30;;;;;;;;;;;4.10;99.90;;;;;;5077791;27;20454;-76
2024/01/31 06:21:56;;;;;;;;;;;3.90;99.90;;;;;;5060362;28;19932;-75
2024/01/31 06:24:21;;;;;;;;;;;4.70;99.90;;;;;;5077661;28;19928;-75
2024/01/31 06:26:47;;;;;;;;;;;4.40;99.90;;;;;;5078756;28;20370;-75
2024/01/31 06:29:18;;;;;;;;;;;4.50;99.90;;;;;;5064578;28;19954;-75
2024/01/31 06:31:47;;;;;;;;;;;4.20;99.90;;;;;;5058740;27;19927;-75
2024/01/31 06:34:16;;;;;;;;;;;4.80;99.90;;;;;;5079003;28;19931;-75
2024/01/31 06:36:42;;;;;;;;;;;4.90;99.90;;;;;;5076659;27;19932;-75
2024/01/31 06:39:11;;;;;;;;;;;4.30;99.90;;;;;;5080066;28;19931;-76
2024/01/31 06:41:37;;;;;;;;;;;4.40;99.90;;;;;;5093628;27;19924;-75
2024/01/31 06:44:03;;;;;;;;;;;5.10;99.90;;;;;;5059489;28;19971;-76
2024/01/31 06:46:35;;;;;;;;;;;4.80;99.90;;;;;;5075790;27;19973;-75
2024/01/31 06:49:00;;;;;;;;;;;5.20;99.90;;;;;;5077138;28;19939;-76
2024/01/31 06:51:27;;;;;;;;;;;4.90;99.90;;;;;;5053408;28;19931;-76
2024/01/31 06:53:52;;;;;;;;;;;5.10;99.90;;;;;;5057336;28;19947;-75
2024/01/31 06:56:19;;;;;;;;;;;4.70;99.90;;;;;;5066664;28;20386;-75
2024/01/31 06:58:48;;;;;;;;;;;4.80;99.90;;;;;;5065871;28;19970;-75
2024/01/31 07:01:17;;;;;;;;;;;5.20;99.90;;;;;;5076876;28;19928;-76
2024/01/31 07:03:44;;;;;;;;;;;4.60;99.90;;;;;;5062424;28;19934;-76
2024/01/31 07:06:13;;;;;;;;;;;4.90;99.90;;;;;;5061566;28;19928;-75
2024/01/31 07:08:39;;;;;;;;;;;4.70;99.90;;;;;;5064281;28;19927;-75
2024/01/31 07:11:05;;;;;;;;;;;4.60;99.90;;;;;;5081170;27;19924;-75
2024/01/31 07:13:31;;;;;;;;;;;4.50;99.90;;;;;;5074257;28;19928;-75
2024/01/31 07:15:57;;;;;;;;;;;4.70;99.90;;;;;;5077211;28;20039;-75
2024/01/31 07:18:23;;;;;;;;;;;4.70;99.90;;;;;;5078880;28;19923;-75
2024/01/31 07:20:49;;;;;;;;;;;5.30;99.90;;;;;;5097245;28;19932;-75
2024/01/31 07:23:14;;;;;;;;;;;5.10;99.90;;;;;;5061235;28;19976;-75
2024/01/31 07:25:40;;;;;;;;;;;4.90;99.90;;;;;;5077375;28;19940;-74
2024/01/31 07:28:07;;;;;;;;;;;4.50;99.90;;;;;;5045432;28;19996;-76
2024/01/31 07:30:33;;;;;;;;;;;5.20;99.90;;;;;;5079367;28;19924;-76
2024/01/31 07:32:58;;;;;;;;;;;4.60;99.90;;;;;;5051725;28;19927;-76
2024/01/31 07:35:25;;;;;;;;;;;5.10;99.90;;;;;;5060946;28;20975;-75
2024/01/31 07:37:57;;;;;;;;;;;4.70;99.90;;;;;;5063720;28;19982;-74
2024/01/31 07:40:23;;;;;;;;;;;4.60;99.90;;;;;;5063580;28;19924;-75
2024/01/31 07:42:48;;;;;;;;;;;5.30;99.90;;;;;;5058308;28;19934;-75
2024/01/31 07:45:15;;;;;;;;;;;4.70;99.90;;;;;;5063164;28;19930;-75
2024/01/31 07:47:41;;;;;;;;;;;5.30;99.90;;;;;;5093891;28;19996;-76
2024/01/31 07:50:07;;;;;;;;;;;4.60;99.90;;;;;;5063926;28;19939;-75
2024/01/31 07:52:33;;;;;;;;;;;4.60;99.90;;;;;;5072061;28;20381;-75
2024/01/31 07:54:58;;;;;;;;;;;4.60;99.90;;;;;;5074785;28;19932;-75
2024/01/31 07:57:24;;;;;;;;;;;5.20;99.90;;;;;;5078257;27;19960;-75
2024/01/31 07:59:50;;;;;;;;;;;4.80;99.90;;;;;;5064107;27;19928;-76
2024/01/31 08:02:15;;;;;;;;;;;4.60;99.90;;;;;;5080062;27;19931;-76
2024/01/31 08:04:42;;;;;;;;;;;5.30;99.90;;;;;;5079829;27;19953;-76
2024/01/31 08:07:11;;;;;;;;;;;5.10;99.90;;;;;;5077299;28;19934;-75
2024/01/31 08:09:39;;;;;;;;;;;5.00;99.90;;;;;;5084225;28;19928;-75
2024/01/31 08:12:06;;;;;;;;;;;5.30;99.90;;;;;;5083367;28;19963;-75
2024/01/31 08:14:32;;;;;;;;;;;5.00;99.90;;;;;;5087200;27;19965;-75
2024/01/31 08:16:57;;;;;;;;;;;4.70;99.90;;;;;;5054659;28;19928;-75
2024/01/31 08:19:23;;;;;;;;;;;4.70;99.90;;;;;;5068229;27;19956;-76
2024/01/31 08:21:48;;;;;;;;;;;5.30;99.90;;;;;;5083485;28;19927;-76
2024/01/31 08:24:14;;;;;;;;;;;5.40;99.90;;;;;;5102076;27;19936;-74
2024/01/31 08:26:40;;;;;;;;;;;4.80;99.90;;;;;;5080752;27;20727;-75
2024/01/31 08:29:06;;;;;;;;;;;5.50;99.90;;;;;;5076564;27;19927;-75
2024/01/31 08:31:31;;;;;;;;;;;5.10;99.90;;;;;;5095613;27;20024;-75
2024/01/31 08:33:57;;;;;;;;;;;4.50;99.90;;;;;;5082902;27;19928;-74
2024/01/31 08:36:23;;;;;;;;;;;5.60;99.90;;;;;;5068712;27;20147;-75
2024/01/31 08:38:48;;;;;;;;;;;5.60;99.90;;;;;;5086665;27;20446;-74
2024/01/31 08:41:14;;;;;;;;;;;5.10;99.90;;;;;;5084347;27;19938;-74
2024/01/31 08:43:39;;;;;;;;;;;5.40;99.90;;;;;;5085736;27;19927;-73
2024/01/31 08:46:05;;;;;;;;;;;5.10;99.90;;;;;;5074664;27;19976;-74
2024/01/31 08:48:31;;;;;;;;;;;5.20;99.90;;;;;;5085187;27;20014;-73
2024/01/31 08:50:57;;;;;;;;;;;5.40;99.90;;;;;;5067824;27;19935;-73
2024/01/31 08:53:23;;;;;;;;;;;5.20;99.90;;;;;;5081030;27;19927;-73
2024/01/31 08:55:48;;;;;;;;;;;5.80;99.90;;;;;;5083594;27;19939;-73
2024/01/31 08:58:14;;;;;;;;;;;5.20;99.90;;;;;;5077930;27;19924;-75
2024/01/31 09:00:39;;;;;;;;;;;5.40;99.90;;;;;;5055299;28;19927;-74
2024/01/31 09:03:05;;;;;;;;;;;5.90;99.90;;;;;;5063457;27;19924;-74
2024/01/31 09:05:31;;;;;;;;;;;5.30;99.90;;;;;;5080506;28;19935;-75
2024/01/31 09:07:59;;;;;;;;;;;5.90;99.90;;;;;;5095223;27;20012;-74
2024/01/31 09:10:26;;;;;;;;;;;6.00;99.90;;;;;;5081816;27;20011;-74
2024/01/31 09:12:53;;;;;;;;;;;6.00;99.90;;;;;;5078692;27;20025;-75
2024/01/31 09:15:19;;;;;;;;;;;5.80;99.90;;;;;;5070043;27;19932;-75
2024/01/31 09:17:46;;;;;;;;;;;5.40;99.90;;;;;;5068428;27;19924;-74
2024/01/31 09:20:12;;;;;;;;;;;5.40;99.90;;;;;;5083063;28;19939;-75
2024/01/31 09:22:38;;;;;;;;;;;6.00;99.90;;;;;;5091982;27;19923;-74
2024/01/31 09:25:05;;;;;;;;;;;5.90;99.90;;;;;;5083860;27;20259;-74
2024/01/31 09:27:31;;;;;;;;;;;5.60;99.90;;;;;;5067810;27;19923;-74
2024/01/31 09:29:56;;;;;;;;;;;5.60;99.90;;;;;;5073814;27;19973;-74
2024/01/31 09:32:22;;;;;;;;;;;6.00;99.90;;;;;;5083423;28;19928;-75
2024/01/31 09:34:48;;;;;;;;;;;5.70;99.90;;;;;;5084417;28;19927;-74
2024/01/31 09:37:13;;;;;;;;;;;5.60;99.90;;;;;;5069132;27;19981;-75
2024/01/31 09:39:39;;;;;;;;;;;5.60;99.90;;;;;;5071774;27;20035;-76
2024/01/31 09:42:05;;;;;;;;;;;6.00;99.90;;;;;;5062668;27;19928;-75
2024/01/31 09:44:31;;;;;;;;;;;5.70;99.90;;;;;;5084170;27;19988;-74
2024/01/31 09:46:58;;;;;;;;;;;5.60;99.90;;;;;;5068102;28;19994;-74
2024/01/31 09:49:24;;;;;;;;;;;5.90;99.90;;;;;;5067170;28;19928;-74
2024/01/31 09:51:56;;;;;;;;;;;5.60;99.90;;;;;;5082214;27;19954;-75
2024/01/31 09:54:23;;;;;;;;;;;6.10;99.90;;;;;;5061707;28;19935;-74
2024/01/31 09:56:48;;;;;;;;;;;5.80;99.90;;;;;;5068093;27;19978;-74
2024/01/31 09:59:14;;;;;;;;;;;5.70;99.90;;;;;;5100323;27;20043;-75
2024/01/31 10:01:41;;;;;;;;;;;5.70;99.90;;;;;;5049238;27;19932;-75
2024/01/31 10:04:07;;;;;;;;;;;6.40;99.90;;;;;;5061384;27;19927;-75
2024/01/31 10:06:32;;;;;;;;;;;6.40;99.90;;;;;;5046006;28;19949;-73
2024/01/31 10:08:58;;;;;;;;;;;6.00;99.90;;;;;;5081871;27;19932;-74
2024/01/31 10:11:27;;;;;;;;;;;6.10;99.90;;;;;;5061503;27;19924;-74
2024/01/31 10:13:53;;;;;;;;;;;6.00;99.90;;;;;;5067092;28;20327;-75
2024/01/31 10:16:20;;;;;;;;;;;7.40;99.90;;;;;;5074140;27;19928;-75
2024/01/31 10:18:45;;;;;;;;;;;6.30;99.90;;;;;;5056646;28;19928;-75
2024/01/31 10:21:11;;;;;;;;;;;5.80;99.90;;;;;;5076675;28;19932;-74
2024/01/31 10:23:36;;;;;;;;;;;5.90;99.90;;;;;;5074569;27;20013;-76
2024/01/31 10:26:02;;;;;;;;;;;5.80;99.90;;;;;;5078697;28;19927;-74
2024/01/31 10:28:28;;;;;;;;;;;6.50;99.90;;;;;;5075988;27;20041;-74
2024/01/31 10:30:57;;;;;;;;;;;5.90;99.90;;;;;;5076267;27;19970;-74
2024/01/31 10:33:23;;;;;;;;;;;6.50;99.90;;;;;;5080284;27;19924;-74
2024/01/31 10:35:49;;;;;;;;;;;5.90;99.90;;;;;;5077669;28;19934;-73
2024/01/31 10:38:15;;;;;;;;;;;5.90;99.90;;;;;;5084075;27;19923;-74
2024/01/31 10:40:42;;;;;;;;;;;6.10;99.90;;;;;;5093679;27;19939;-75
2024/01/31 10:43:11;;;;;;;;;;;6.00;99.90;;;;;;5086535;28;20590;-74
2024/01/31 10:45:37;;;;;;;;;;;6.00;99.90;;;;;;5088385;28;19927;-74
2024/01/31 10:48:03;;;;;;;;;;;6.60;99.90;;;;;;5083525;28;19935;-74
2024/01/31 10:50:29;;;;;;;;;;;6.20;99.90;;;;;;5083206;27;20270;-74
2024/01/31 10:52:55;;;;;;;;;;;6.60;99.90;;;;;;5054851;28;20026;-75
2024/01/31 10:55:22;;;;;;;;;;;6.00;99.90;;;;;;5068457;28;20560;-75
2024/01/31 10:57:48;;;;;;;;;;;6.20;99.90;;;;;;5080551;28;20441;-74
2024/01/31 11:00:25;;;;;;;;;;;6.00;99.90;;;;;;5070639;28;20393;-75
2024/01/31 11:02:51;;;;;;;;;;;6.60;99.90;;;;;;5079076;27;19930;-74
2024/01/31 11:05:17;;;;;;;;;;;6.60;99.90;;;;;;5068549;28;19937;-75
2024/01/31 11:07:47;;;;;;;;;;;6.40;99.90;;;;;;5078659;28;20013;-75
2024/01/31 11:10:17;;;;;;;;;;;6.10;99.90;;;;;;5076038;28;19981;-74
2024/01/31 11:12:43;;;;;;;;;;;6.60;99.90;;;;;;5060273;28;19928;-74
2024/01/31 11:15:09;;;;;;;;;;;6.80;99.90;;;;;;5081957;28;19935;-74
2024/01/31 11:17:36;;;;;;;;;;;6.20;99.90;;;;;;5045142;28;19923;-75
2024/01/31 11:20:02;;;;;;;;;;;6.30;99.90;;;;;;5078087;28;19935;-76
2024/01/31 11:22:31;;;;;;;;;;;6.20;99.90;;;;;;5092677;28;19928;-75
2024/01/31 11:25:03;;;;;;;;;;;6.60;99.90;;;;;;5091506;28;20497;-75
2024/01/31 11:27:29;;;;;;;;;;;6.70;99.90;;;;;;5061578;28;19957;-75
2024/01/31 11:29:56;;;;;;;;;;;6.90;99.90;;;;;;5078357;28;19934;-75
2024/01/31 11:32:23;;;;;;;;;;;6.30;99.90;;;;;;5078420;28;20057;-75
2024/01/31 11:34:59;;;;;;;;;;;6.40;99.90;;;;;;5073008;28;20042;-74
2024/01/31 11:37:25;;;;;;;;;;;6.50;99.90;;;;;;5046050;28;20255;-75
2024/01/31 11:39:50;;;;;;;;;;;6.60;99.90;;;;;;5046762;28;19930;-75
2024/01/31 11:42:16;;;;;;;;;;;6.80;99.90;;;;;;5078747;28;19924;-75
2024/01/31 11:44:42;;;;;;;;;;;6.70;99.90;;;;;;5077672;28;19928;-75
2024/01/31 11:47:08;;;;;;;;;;;6.30;99.90;;;;;;5079060;28;19935;-75
2024/01/31 11:49:33;;;;;;;;;;;6.40;99.90;;;;;;5078799;28;19924;-74
2024/01/31 11:51:59;;;;;;;;;;;7.00;99.90;;;;;;5080408;28;19973;-75
2024/01/31 11:54:25;;;;;;;;;;;6.50;99.90;;;;;;5079211;28;20002;-75
2024/01/31 11:56:52;;;;;;;;;;;7.10;99.90;;;;;;5077218;28;19928;-75
2024/01/31 11:59:19;;;;;;;;;;;7.10;99.90;;;;;;5080424;28;20653;-75
2024/01/31 12:01:44;;;;;;;;;;;7.20;99.90;;;;;;5098029;28;20285;-76
2024/01/31 12:04:11;;;;;;;;;;;7.20;99.90;;;;;;5093993;28;19927;-75
2024/01/31 12:06:37;;;;;;;;;;;7.00;99.90;;;;;;5079916;28;20290;-76
2024/01/31 12:09:04;;;;;;;;;;;6.80;99.90;;;;;;5075833;28;20126;-74
2024/01/31 12:11:32;;;;;;;;;;;7.10;99.90;;;;;;5065429;28;19928;-73
2024/01/31 12:13:58;;;;;;;;;;;7.20;99.90;;;;;;5059684;28;20014;-75
2024/01/31 12:16:24;;;;;;;;;;;6.90;99.90;;;;;;5077493;28;19932;-75
2024/01/31 12:19:00;;;;;;;;;;;7.20;99.90;;;;;;5079619;28;19931;-74
2024/01/31 12:21:26;;;;;;;;;;;6.50;99.90;;;;;;5076933;28;19995;-76
2024/01/31 12:23:51;;;;;;;;;;;6.90;99.90;;;;;;5074370;28;19932;-74
2024/01/31 12:26:17;;;;;;;;;;;6.80;99.90;;;;;;5077578;28;19932;-75
2024/01/31 12:28:52;;;;;;;;;;;7.90;99.90;;;;;;5079732;28;19939;-73
2024/01/31 12:31:17;;;;;;;;;;;6.50;99.90;;;;;;5098651;28;19977;-74
2024/01/31 12:33:43;;;;;;;;;;;7.20;99.90;;;;;;5049398;28;19936;-75
2024/01/31 12:36:09;;;;;;;;;;;6.50;99.90;;;;;;5082615;28;20605;-74
2024/01/31 12:38:35;;;;;;;;;;;6.80;99.90;;;;;;5047917;28;19931;-74
2024/01/31 12:41:00;;;;;;;;;;;6.50;99.90;;;;;;5055527;28;20765;-74
2024/01/31 12:43:26;;;;;;;;;;;6.80;99.90;;;;;;5087856;28;19931;-74
2024/01/31 12:45:52;;;;;;;;;;;6.60;99.90;;;;;;5089453;27;19928;-75
2024/01/31 12:48:17;;;;;;;;;;;6.60;99.90;;;;;;5086234;28;20113;-75
2024/01/31 12:50:43;;;;;;;;;;;6.50;99.90;;;;;;5081744;27;20453;-75
2024/01/31 12:53:09;;;;;;;;;;;7.10;99.90;;;;;;5084897;28;19932;-75
2024/01/31 12:55:34;;;;;;;;;;;6.90;99.90;;;;;;5085367;28;20268;-74
2024/01/31 12:58:00;;;;;;;;;;;7.00;99.90;;;;;;5084521;27;19986;-75
2024/01/31 13:00:25;;;;;;;;;;;6.60;99.90;;;;;;5068725;28;19935;-75
2024/01/31 13:02:51;;;;;;;;;;;7.10;99.90;;;;;;5080830;28;19947;-75
2024/01/31 13:05:17;;;;;;;;;;;7.00;99.90;;;;;;5068719;28;19928;-74
2024/01/31 13:07:42;;;;;;;;;;;6.40;99.90;;;;;;5086028;28;19939;-74
2024/01/31 13:10:08;;;;;;;;;;;6.80;99.90;;;;;;5085347;27;19953;-74
2024/01/31 13:12:34;;;;;;;;;;;7.00;99.90;;;;;;5083958;27;19956;-74
2024/01/31 13:14:59;;;;;;;;;;;6.50;99.90;;;;;;5083772;27;19979;-74
2024/01/31 13:17:25;;;;;;;;;;;6.90;99.90;;;;;;5085660;27;20362;-75
2024/01/31 13:19:51;;;;;;;;;;;6.50;99.90;;;;;;5085260;28;19935;-76
2024/01/31 13:22:16;;;;;;;;;;;6.70;99.80;;;;;;5091716;27;19924;-73
2024/01/31 13:24:48;;;;;;;;;;;6.30;99.90;;;;;;5051972;27;20048;-73
2024/01/31 13:27:14;;;;;;;;;;;6.30;99.90;;;;;;5084171;28;19935;-74
2024/01/31 13:29:41;;;;;;;;;;;6.30;99.90;;;;;;5069329;27;19938;-74
2024/01/31 13:32:06;;;;;;;;;;;6.30;99.80;;;;;;5083418;27;19928;-73
2024/01/31 13:34:32;;;;;;;;;;;6.90;99.90;;;;;;5068693;27;19980;-73
2024/01/31 13:37:00;;;;;;;;;;;6.40;99.50;;;;;;5085676;27;20378;-74
2024/01/31 13:39:26;;;;;;;;;;;6.70;98.70;;;;;;5069551;27;20015;-74
2024/01/31 13:41:52;;;;;;;;;;;6.60;98.30;;;;;;5084944;28;20038;-74
2024/01/31 13:44:17;;;;;;;;;;;7.00;98.70;;;;;;5083708;27;19928;-74
2024/01/31 13:46:43;;;;;;;;;;;6.70;98.20;;;;;;5084404;28;19936;-74
2024/01/31 13:49:11;;;;;;;;;;;6.40;98.40;;;;;;5072231;27;19928;-74
2024/01/31 13:51:36;;;;;;;;;;;6.80;99.20;;;;;;5088387;27;20129;-74
2024/01/31 13:54:02;;;;;;;;;;;6.80;99.00;;;;;;5086988;27;20356;-75
2024/01/31 13:56:27;;;;;;;;;;;6.60;98.60;;;;;;5087894;27;19934;-74
2024/01/31 13:58:53;;;;;;;;;;;6.50;98.70;;;;;;5069721;28;19934;-74
2024/01/31 14:01:19;;;;;;;;;;;7.00;98.90;;;;;;5101383;27;19932;-74
2024/01/31 14:03:44;;;;;;;;;;;6.80;98.50;;;;;;5086077;27;19930;-74
2024/01/31 14:06:10;;;;;;;;;;;7.00;98.20;;;;;;5071474;28;19932;-72
2024/01/31 14:08:41;;;;;;;;;;;7.00;98.70;;;;;;5071333;28;19974;-75
2024/01/31 14:11:07;;;;;;;;;;;6.80;99.00;;;;;;5085186;28;20562;-75
2024/01/31 14:13:32;;;;;;;;;;;6.30;97.60;;;;;;5055853;28;19928;-75
2024/01/31 14:15:58;;;;;;;;;;;6.50;98.30;;;;;;5068573;28;19988;-74
2024/01/31 14:18:24;;;;;;;;;;;6.40;98.00;;;;;;5087008;28;19923;-75
2024/01/31 14:20:49;;;;;;;;;;;6.50;98.50;;;;;;5069076;28;19943;-73
2024/01/31 14:23:15;;;;;;;;;;;6.60;98.40;;;;;;5081162;27;19931;-74
2024/01/31 14:25:41;;;;;;;;;;;6.60;97.40;;;;;;5070500;28;19928;-75